• Join FlightAware (Why Join?)
  • Login
  • US Flag 
10:59AM EDT


 

Airport Tracker/Info


-or-


 

Live Flight TrackerFlight Track Log ✈ UAL4695 ✈ 30-Apr-2013 ✈ KRDU - KEWR

Flight Track Log - Related Links

Times and Time Zones

All times are in EDT time to prevent confusion due to time zone crossing. See the UAL4695 flight status page for this flight to view local times or setup timezone preferences in your user account.

Time Position Orientation Groundspeed Altitude Reporting Facility
EDT Latitude Longitude Course Direction KTS MPH feet Rate Location/Type
05:19PM 35.9053 -78.7719 15° North 179 206 1,700  Level Washington Center
05:20PM 35.9497 -78.7428 28° Northeast 189 217 4,300 2,340 Climbing Washington Center
05:21PM 36.0044 -78.7244 15° North 243 280 6,000 2,280 Climbing Washington Center
05:22PM 36.1747 -78.6656 19° North  Level FlightAware Approximate
05:22PM 36.0783 -78.6992 15° North 270 311 8,600  Level Washington Center
05:23PM 36.2515 -78.6328 15° North  Level FlightAware Approximate
05:23PM 36.1433 -78.6786 14° North 270 311 10,600  Level Washington Center
05:24PM 36.3299 -78.6067 15° North  Level FlightAware Approximate
05:24PM 36.2381 -78.6489 14° North 294 338 11,800  Level Washington Center
05:25PM 36.3244 -78.6211 15° North 337 388 13,100 1,380 Climbing Washington Center
05:26PM 36.4358 -78.5842 15° North 360 414 14,700 1,500 Climbing Washington Center
05:27PM 36.5369 -78.5494 15° North 373 429 16,100 1,440 Climbing Washington Center
05:28PM 36.6419 -78.5144 15° North 373 429 17,600 1,200 Climbing Washington Center
05:29PM 36.7328 -78.4764 19° North 384 442 18,600 1,140 Climbing Washington Center
05:30PM 36.8239 -78.4072 31° Northeast 379 436 20,000 1,380 Climbing Washington Center
05:31PM 36.9153 -78.3353 32° Northeast 379 436 21,400 1,500 Climbing Washington Center
05:32PM 37.0153 -78.2528 33° Northeast 391 450 23,100 1,500 Climbing Washington Center
05:33PM 37.1067 -78.1806 32° Northeast 391 450 24,400 900 Climbing Washington Center
05:34PM 37.1872 -78.1128 34° Northeast 391 450 25,000 780 Climbing Washington Center
05:35PM 37.2808 -78.0350 33° Northeast 391 450 26,000 480 Climbing Washington Center
05:36PM 37.3783 -77.9544 33° Northeast 397 457 26,000  Level Washington Center
05:37PM 37.4781 -77.8711 34° Northeast 411 473 26,000 420 Level Washington Center
05:38PM 37.5775 -77.7825 35° Northeast 431 496 26,900 480 Climbing Washington Center
05:39PM 37.6772 -77.6961 34° Northeast 431 496 27,000  Climbing Washington Center
05:40PM 37.7767 -77.6044 36° Northeast 431 496 27,000  Level Washington Center
05:41PM 37.8783 -77.5097 36° Northeast 436 502 27,000  Level Washington Center
05:42PM 37.9800 -77.4175 36° Northeast 436 502 27,000  Level Washington Center
05:43PM 38.0750 -77.3328 35° Northeast 436 502 27,000  Level Washington Center
05:44PM 38.1861 -77.2903 17° North 410 472 27,000  Level Washington Center
05:45PM 38.3047 -77.3142 351° North 402 463 27,000  Level Washington Center
05:46PM 38.4197 -77.3008 North 407 468 27,000  Level Washington Center
05:47PM 38.4983 -77.1781 51° Northeast 394 453 27,000  Level Washington Center
05:48PM 38.5647 -77.0414 58° Northeast 401 461 27,000  Level Washington Center
05:49PM 38.6600 -76.9131 46° Northeast 434 499 27,000  Level Washington Center
05:50PM 38.7278 -76.8211 47° Northeast 439 505 27,000  Level Washington Center
05:51PM 38.8186 -76.7000 46° Northeast 439 505 27,000  Level Washington Center
05:52PM 38.9008 -76.5867 47° Northeast 434 499 27,000  Level Washington Center
05:53PM 38.9853 -76.4728 46° Northeast 429 494 27,000  Level Washington Center
05:54PM 39.0672 -76.3617 46° Northeast 429 494 27,000  Level Washington Center
05:55PM 39.1514 -76.2472 46° Northeast 429 494 27,000  Level Washington Center
05:56PM 39.2456 -76.1222 46° Northeast 434 499 27,000  Level Washington Center
05:57PM 39.3378 -76.0156 42° Northeast 434 499 27,000  Level Washington Center
05:58PM 39.4236 -75.9086 44° Northeast 428 493 27,000  Level Washington Center
05:59PM 39.5114 -75.7986 44° Northeast 428 493 27,000 -780 Level Washington Center
06:00PM 39.6053 -75.6967 40° Northeast 428 493 25,500 -2,040 Descending Washington Center
06:01PM 39.6906 -75.5942 43° Northeast 423 487 23,100 -2,580 Descending Washington Center
06:02PM 39.7781 -75.4889 43° Northeast 423 487 20,400 -2,520 Descending Washington Center
06:03PM 39.8614 -75.3889 43° Northeast 423 487 18,000 -2,220 Descending Washington Center
06:04PM 39.9403 -75.2939 43° Northeast 411 473 16,000 -1,920 Descending Washington Center
06:05PM 40.0025 -75.2178 43° Northeast 393 452 14,200 -2,040 Descending Washington Center
06:06PM 40.0833 -75.1197 43° Northeast 371 427 12,000 -1,740 Descending Washington Center
06:07PM 40.1667 -75.0167 43° Northeast 288 331 10,500 -1,260 Descending New York TRACON
06:08PM 40.2167 -74.9500 46° Northeast 288 331 9,300 -1,260 Descending New York TRACON
06:09PM 40.2833 -74.8667 44° Northeast 277 319 8,000 -660 Descending New York TRACON
06:10PM 40.3333 -74.8000 45° Northeast 271 312 8,000 -600 Level New York TRACON
06:12PM 40.4333 -74.6667 45° Northeast 261 300 6,200 -720 Descending New York TRACON
06:13PM 40.4833 -74.6167 37° Northeast 263 303 6,000 -120 Descending New York TRACON
06:15PM 40.6167 -74.6000 North 266 306 6,000  Level New York TRACON
06:16PM 40.6833 -74.6667 323° Northwest 277 319 6,000  Level New York TRACON
06:17PM 40.7333 -74.6833 346° North 261 300 6,000  Level New York TRACON
06:18PM 40.8000 -74.6667 11° North 247 284 6,000  Level New York TRACON
06:19PM 40.8667 -74.6167 30° Northeast 233 268 6,000 -300 Level New York TRACON
06:20PM 40.9000 -74.5667 49° Northeast 196 226 5,400 -480 Descending New York TRACON
06:21PM 40.9333 -74.5167 49° Northeast 200 230 5,100 -180 Descending New York TRACON
06:22PM 40.9667 -74.4667 49° Northeast 201 231 5,100 -60 Level New York TRACON
06:23PM 40.9667 -74.4000 90° East 192 221 5,000  Descending New York TRACON
06:24PM 40.9667 -74.3333 90° East 188 216 5,100 -480 Climbing New York TRACON
06:25PM 40.9500 -74.2500 105° East 191 220 4,100 -540 Descending New York TRACON
06:26PM 40.9500 -74.1833 90° East 177 204 4,100 -60 Level New York TRACON
06:27PM 40.9167 -74.1333 131° Southeast 184 212 4,000 -540 Descending New York TRACON
06:28PM 40.8833 -74.0833 131° Southeast 185 213 3,100 -480 Descending New York TRACON
06:29PM 40.8333 -74.0833 180° South 189 217 3,100  Level New York TRACON